Hallettsville, Texas
Current Conditions -  °F | °C
As of 6:55 PM on Tuesday 21 Oct 2014 (Local Time) from K66R Reporting Station
Clear Clear  
Wind Chill: 73°   Ceiling: Unl
Heat Index: 73°   Visibility: 10mi
Dew Point: 54°   Wind: 3mph
Humidity: 51%   Direction: 60°ENE
Pressure: 29.98"   Gusts: NA
Location:  29.44°N, 96.94°W
Report Text: K66R 212355Z AUTO 06003KT 10SM CLR 23/12 A2998 RMK AO2 T02260120 10283 20226
Loading
Personal Weather Stations






























Interactive Weather Map
Tropical Storm Tracking
New forecast layout! Learn more

10-Day Weather Forecast

Advertisements
Track Severe Weather on mobile